sensor_id;sensor_type;location;lat;lon;timestamp;P1;durP1;ratioP1;P2;durP2;ratioP2
43620;SDS011;29213;50.770;7.298;2024-03-08T00:02:14;21.60;;;16.42;;
43620;SDS011;29213;50.770;7.298;2024-03-08T00:04:40;22.48;;;16.02;;
43620;SDS011;29213;50.770;7.298;2024-03-08T00:07:05;21.10;;;15.23;;
43620;SDS011;29213;50.770;7.298;2024-03-08T00:09:32;21.30;;;15.70;;
43620;SDS011;29213;50.770;7.298;2024-03-08T00:11:57;21.58;;;16.02;;
43620;SDS011;29213;50.770;7.298;2024-03-08T00:14:23;24.13;;;16.85;;
43620;SDS011;29213;50.770;7.298;2024-03-08T00:16:48;21.33;;;15.23;;
43620;SDS011;29213;50.770;7.298;2024-03-08T00:19:14;23.67;;;16.08;;
43620;SDS011;29213;50.770;7.298;2024-03-08T00:21:39;21.00;;;16.02;;
43620;SDS011;29213;50.770;7.298;2024-03-08T00:24:05;24.38;;;16.17;;
43620;SDS011;29213;50.770;7.298;2024-03-08T00:26:30;22.13;;;15.95;;
43620;SDS011;29213;50.770;7.298;2024-03-08T00:28:56;23.63;;;16.40;;
43620;SDS011;29213;50.770;7.298;2024-03-08T00:31:21;23.88;;;16.52;;
43620;SDS011;29213;50.770;7.298;2024-03-08T00:33:46;22.70;;;16.70;;
43620;SDS011;29213;50.770;7.298;2024-03-08T00:36:12;21.48;;;16.02;;
43620;SDS011;29213;50.770;7.298;2024-03-08T00:38:37;22.58;;;16.30;;
43620;SDS011;29213;50.770;7.298;2024-03-08T00:41:03;24.02;;;17.10;;
43620;SDS011;29213;50.770;7.298;2024-03-08T00:43:28;24.95;;;17.25;;
43620;SDS011;29213;50.770;7.298;2024-03-08T00:45:55;25.10;;;17.27;;
43620;SDS011;29213;50.770;7.298;2024-03-08T00:48:21;25.70;;;17.63;;
43620;SDS011;29213;50.770;7.298;2024-03-08T00:50:46;26.27;;;16.30;;
43620;SDS011;29213;50.770;7.298;2024-03-08T00:53:12;24.88;;;17.13;;
43620;SDS011;29213;50.770;7.298;2024-03-08T00:55:38;22.42;;;16.20;;
43620;SDS011;29213;50.770;7.298;2024-03-08T00:58:04;25.02;;;18.05;;
43620;SDS011;29213;50.770;7.298;2024-03-08T01:00:30;24.73;;;16.50;;
43620;SDS011;29213;50.770;7.298;2024-03-08T01:02:55;22.77;;;16.98;;
43620;SDS011;29213;50.770;7.298;2024-03-08T01:05:21;22.50;;;15.90;;
43620;SDS011;29213;50.770;7.298;2024-03-08T01:07:46;24.83;;;17.23;;
43620;SDS011;29213;50.770;7.298;2024-03-08T01:10:12;22.65;;;16.27;;
43620;SDS011;29213;50.770;7.298;2024-03-08T01:12:38;23.65;;;16.77;;
43620;SDS011;29213;50.770;7.298;2024-03-08T01:15:04;23.48;;;17.10;;
43620;SDS011;29213;50.770;7.298;2024-03-08T01:17:30;22.08;;;16.13;;
43620;SDS011;29213;50.770;7.298;2024-03-08T01:19:56;23.35;;;16.75;;
43620;SDS011;29213;50.770;7.298;2024-03-08T01:22:21;24.02;;;16.73;;
43620;SDS011;29213;50.770;7.298;2024-03-08T01:24:47;25.33;;;17.63;;
43620;SDS011;29213;50.770;7.298;2024-03-08T01:27:13;23.65;;;16.98;;
43620;SDS011;29213;50.770;7.298;2024-03-08T01:29:39;23.25;;;17.17;;
43620;SDS011;29213;50.770;7.298;2024-03-08T01:32:04;24.13;;;16.95;;
43620;SDS011;29213;50.770;7.298;2024-03-08T01:34:31;27.70;;;17.75;;
43620;SDS011;29213;50.770;7.298;2024-03-08T01:36:58;25.13;;;17.27;;
43620;SDS011;29213;50.770;7.298;2024-03-08T01:39:24;26.65;;;16.60;;
43620;SDS011;29213;50.770;7.298;2024-03-08T01:41:50;24.92;;;16.42;;
43620;SDS011;29213;50.770;7.298;2024-03-08T01:44:16;24.08;;;16.33;;
43620;SDS011;29213;50.770;7.298;2024-03-08T01:46:45;24.40;;;16.98;;
43620;SDS011;29213;50.770;7.298;2024-03-08T01:49:13;25.15;;;16.63;;
43620;SDS011;29213;50.770;7.298;2024-03-08T01:51:39;28.70;;;17.45;;
43620;SDS011;29213;50.770;7.298;2024-03-08T01:54:05;25.75;;;17.25;;
43620;SDS011;29213;50.770;7.298;2024-03-08T01:56:31;25.67;;;17.85;;
43620;SDS011;29213;50.770;7.298;2024-03-08T01:58:57;25.48;;;17.75;;
43620;SDS011;29213;50.770;7.298;2024-03-08T02:01:24;23.38;;;16.45;;
43620;SDS011;29213;50.770;7.298;2024-03-08T02:03:50;25.90;;;17.88;;
43620;SDS011;29213;50.770;7.298;2024-03-08T02:06:16;26.77;;;17.48;;
43620;SDS011;29213;50.770;7.298;2024-03-08T02:08:42;23.60;;;16.08;;
43620;SDS011;29213;50.770;7.298;2024-03-08T02:11:10;24.80;;;17.73;;
43620;SDS011;29213;50.770;7.298;2024-03-08T02:13:36;24.38;;;17.38;;
43620;SDS011;29213;50.770;7.298;2024-03-08T02:16:01;25.85;;;17.70;;
43620;SDS011;29213;50.770;7.298;2024-03-08T02:18:27;26.67;;;18.23;;
43620;SDS011;29213;50.770;7.298;2024-03-08T02:20:55;24.90;;;17.55;;
43620;SDS011;29213;50.770;7.298;2024-03-08T02:23:22;27.83;;;17.60;;
43620;SDS011;29213;50.770;7.298;2024-03-08T02:25:48;25.63;;;17.40;;
43620;SDS011;29213;50.770;7.298;2024-03-08T02:28:14;27.17;;;18.02;;
43620;SDS011;29213;50.770;7.298;2024-03-08T02:30:40;25.70;;;17.25;;
43620;SDS011;29213;50.770;7.298;2024-03-08T02:33:06;27.23;;;16.98;;
43620;SDS011;29213;50.770;7.298;2024-03-08T02:35:31;22.55;;;16.75;;
43620;SDS011;29213;50.770;7.298;2024-03-08T02:37:58;27.08;;;17.50;;
43620;SDS011;29213;50.770;7.298;2024-03-08T02:40:24;23.98;;;17.40;;
43620;SDS011;29213;50.770;7.298;2024-03-08T02:42:49;24.00;;;17.25;;
43620;SDS011;29213;50.770;7.298;2024-03-08T02:45:14;24.73;;;17.52;;
43620;SDS011;29213;50.770;7.298;2024-03-08T02:47:40;23.80;;;17.20;;
43620;SDS011;29213;50.770;7.298;2024-03-08T02:50:06;23.70;;;17.42;;
43620;SDS011;29213;50.770;7.298;2024-03-08T02:52:36;26.38;;;17.95;;
43620;SDS011;29213;50.770;7.298;2024-03-08T02:55:02;25.67;;;17.88;;
43620;SDS011;29213;50.770;7.298;2024-03-08T02:57:27;24.35;;;17.52;;
43620;SDS011;29213;50.770;7.298;2024-03-08T02:59:53;25.42;;;17.50;;
43620;SDS011;29213;50.770;7.298;2024-03-08T03:02:19;26.38;;;17.73;;
43620;SDS011;29213;50.770;7.298;2024-03-08T03:04:45;25.60;;;17.65;;
43620;SDS011;29213;50.770;7.298;2024-03-08T03:07:10;28.77;;;18.90;;
43620;SDS011;29213;50.770;7.298;2024-03-08T03:09:36;25.08;;;17.42;;
43620;SDS011;29213;50.770;7.298;2024-03-08T03:12:02;25.65;;;17.50;;
43620;SDS011;29213;50.770;7.298;2024-03-08T03:14:27;22.65;;;16.65;;
43620;SDS011;29213;50.770;7.298;2024-03-08T03:16:53;24.83;;;17.30;;
43620;SDS011;29213;50.770;7.298;2024-03-08T03:19:19;26.70;;;18.33;;
43620;SDS011;29213;50.770;7.298;2024-03-08T03:21:45;25.60;;;17.73;;
43620;SDS011;29213;50.770;7.298;2024-03-08T03:24:11;27.05;;;18.38;;
43620;SDS011;29213;50.770;7.298;2024-03-08T03:26:40;25.83;;;17.42;;
43620;SDS011;29213;50.770;7.298;2024-03-08T03:29:06;26.35;;;17.40;;
43620;SDS011;29213;50.770;7.298;2024-03-08T03:31:33;24.40;;;17.33;;
43620;SDS011;29213;50.770;7.298;2024-03-08T03:33:59;26.10;;;17.52;;
43620;SDS011;29213;50.770;7.298;2024-03-08T03:36:27;24.40;;;17.00;;
43620;SDS011;29213;50.770;7.298;2024-03-08T03:38:55;27.13;;;17.50;;
43620;SDS011;29213;50.770;7.298;2024-03-08T03:41:38;24.38;;;17.48;;
43620;SDS011;29213;50.770;7.298;2024-03-08T03:44:04;24.63;;;16.90;;
43620;SDS011;29213;50.770;7.298;2024-03-08T03:46:31;26.05;;;16.95;;
43620;SDS011;29213;50.770;7.298;2024-03-08T03:48:57;26.77;;;17.67;;
43620;SDS011;29213;50.770;7.298;2024-03-08T03:51:23;24.73;;;17.77;;
43620;SDS011;29213;50.770;7.298;2024-03-08T03:53:49;24.20;;;16.77;;
43620;SDS011;29213;50.770;7.298;2024-03-08T03:56:14;28.17;;;17.73;;
43620;SDS011;29213;50.770;7.298;2024-03-08T03:58:40;23.00;;;17.13;;
43620;SDS011;29213;50.770;7.298;2024-03-08T04:01:05;23.83;;;17.10;;
43620;SDS011;29213;50.770;7.298;2024-03-08T04:03:31;25.48;;;18.08;;
43620;SDS011;29213;50.770;7.298;2024-03-08T04:05:57;25.13;;;17.73;;
43620;SDS011;29213;50.770;7.298;2024-03-08T04:08:22;24.55;;;16.33;;
43620;SDS011;29213;50.770;7.298;2024-03-08T04:10:50;22.48;;;16.55;;
43620;SDS011;29213;50.770;7.298;2024-03-08T04:13:16;26.92;;;17.10;;
43620;SDS011;29213;50.770;7.298;2024-03-08T04:15:41;25.58;;;17.90;;
43620;SDS011;29213;50.770;7.298;2024-03-08T04:18:09;23.80;;;16.88;;
43620;SDS011;29213;50.770;7.298;2024-03-08T04:20:35;28.00;;;18.48;;
43620;SDS011;29213;50.770;7.298;2024-03-08T04:23:00;23.75;;;17.10;;
43620;SDS011;29213;50.770;7.298;2024-03-08T04:25:27;24.10;;;16.45;;
43620;SDS011;29213;50.770;7.298;2024-03-08T04:27:52;22.77;;;16.70;;
43620;SDS011;29213;50.770;7.298;2024-03-08T04:30:18;23.10;;;16.08;;
43620;SDS011;29213;50.770;7.298;2024-03-08T04:32:43;27.45;;;17.85;;
43620;SDS011;29213;50.770;7.298;2024-03-08T04:35:09;24.80;;;17.27;;
43620;SDS011;29213;50.770;7.298;2024-03-08T04:37:34;23.05;;;17.08;;
43620;SDS011;29213;50.770;7.298;2024-03-08T04:40:00;25.50;;;17.48;;
43620;SDS011;29213;50.770;7.298;2024-03-08T04:42:26;24.42;;;16.98;;
43620;SDS011;29213;50.770;7.298;2024-03-08T04:44:53;26.63;;;18.42;;
43620;SDS011;29213;50.770;7.298;2024-03-08T04:47:19;25.17;;;17.85;;
43620;SDS011;29213;50.770;7.298;2024-03-08T04:49:45;26.15;;;17.90;;
43620;SDS011;29213;50.770;7.298;2024-03-08T04:52:11;25.35;;;17.95;;
43620;SDS011;29213;50.770;7.298;2024-03-08T04:54:37;25.15;;;18.33;;
43620;SDS011;29213;50.770;7.298;2024-03-08T04:57:02;26.70;;;17.92;;
43620;SDS011;29213;50.770;7.298;2024-03-08T04:59:29;23.73;;;16.90;;
43620;SDS011;29213;50.770;7.298;2024-03-08T05:01:55;22.88;;;16.27;;
43620;SDS011;29213;50.770;7.298;2024-03-08T05:04:21;23.95;;;17.05;;
43620;SDS011;29213;50.770;7.298;2024-03-08T05:06:47;22.95;;;16.77;;
43620;SDS011;29213;50.770;7.298;2024-03-08T05:09:13;25.80;;;17.63;;
43620;SDS011;29213;50.770;7.298;2024-03-08T05:11:42;25.25;;;16.60;;
43620;SDS011;29213;50.770;7.298;2024-03-08T05:14:09;24.77;;;17.63;;
43620;SDS011;29213;50.770;7.298;2024-03-08T05:16:35;22.92;;;16.52;;
43620;SDS011;29213;50.770;7.298;2024-03-08T05:19:01;24.85;;;17.13;;
43620;SDS011;29213;50.770;7.298;2024-03-08T05:21:27;25.38;;;16.73;;
43620;SDS011;29213;50.770;7.298;2024-03-08T05:23:54;27.33;;;18.00;;
43620;SDS011;29213;50.770;7.298;2024-03-08T05:26:19;24.45;;;16.55;;
43620;SDS011;29213;50.770;7.298;2024-03-08T05:28:45;27.17;;;18.45;;
43620;SDS011;29213;50.770;7.298;2024-03-08T05:31:17;26.65;;;17.98;;
43620;SDS011;29213;50.770;7.298;2024-03-08T05:33:49;26.60;;;17.92;;
43620;SDS011;29213;50.770;7.298;2024-03-08T05:36:15;24.70;;;17.63;;
43620;SDS011;29213;50.770;7.298;2024-03-08T05:38:44;25.88;;;17.92;;
43620;SDS011;29213;50.770;7.298;2024-03-08T05:41:09;27.35;;;17.25;;
43620;SDS011;29213;50.770;7.298;2024-03-08T05:43:37;27.25;;;17.63;;
43620;SDS011;29213;50.770;7.298;2024-03-08T05:46:02;26.33;;;18.30;;
43620;SDS011;29213;50.770;7.298;2024-03-08T05:48:29;26.75;;;19.55;;
43620;SDS011;29213;50.770;7.298;2024-03-08T05:50:57;30.90;;;19.88;;
43620;SDS011;29213;50.770;7.298;2024-03-08T05:53:22;29.17;;;19.92;;
43620;SDS011;29213;50.770;7.298;2024-03-08T05:55:48;27.85;;;19.00;;
43620;SDS011;29213;50.770;7.298;2024-03-08T05:58:14;28.70;;;20.23;;
43620;SDS011;29213;50.770;7.298;2024-03-08T06:00:40;31.30;;;19.58;;
43620;SDS011;29213;50.770;7.298;2024-03-08T06:03:05;28.95;;;18.65;;
43620;SDS011;29213;50.770;7.298;2024-03-08T06:05:31;27.45;;;19.25;;
43620;SDS011;29213;50.770;7.298;2024-03-08T06:07:56;30.15;;;19.98;;
43620;SDS011;29213;50.770;7.298;2024-03-08T06:10:22;30.27;;;20.00;;
43620;SDS011;29213;50.770;7.298;2024-03-08T06:12:47;26.63;;;18.98;;
43620;SDS011;29213;50.770;7.298;2024-03-08T06:15:13;30.83;;;19.58;;
43620;SDS011;29213;50.770;7.298;2024-03-08T06:17:41;31.00;;;19.92;;
43620;SDS011;29213;50.770;7.298;2024-03-08T06:20:07;26.63;;;19.05;;
43620;SDS011;29213;50.770;7.298;2024-03-08T06:22:37;27.60;;;19.30;;
43620;SDS011;29213;50.770;7.298;2024-03-08T06:25:05;33.13;;;20.52;;
43620;SDS011;29213;50.770;7.298;2024-03-08T06:27:32;28.20;;;20.08;;
43620;SDS011;29213;50.770;7.298;2024-03-08T06:29:59;29.02;;;19.83;;
43620;SDS011;29213;50.770;7.298;2024-03-08T06:32:25;27.42;;;19.05;;
43620;SDS011;29213;50.770;7.298;2024-03-08T06:34:50;30.02;;;19.25;;
43620;SDS011;29213;50.770;7.298;2024-03-08T06:37:16;27.65;;;19.42;;
43620;SDS011;29213;50.770;7.298;2024-03-08T06:39:47;28.05;;;19.35;;
43620;SDS011;29213;50.770;7.298;2024-03-08T06:42:13;30.52;;;20.60;;
43620;SDS011;29213;50.770;7.298;2024-03-08T06:44:38;28.67;;;19.40;;
43620;SDS011;29213;50.770;7.298;2024-03-08T06:47:10;29.13;;;19.98;;
43620;SDS011;29213;50.770;7.298;2024-03-08T06:49:36;27.65;;;18.88;;
43620;SDS011;29213;50.770;7.298;2024-03-08T06:52:01;30.80;;;20.65;;
43620;SDS011;29213;50.770;7.298;2024-03-08T06:54:27;28.98;;;20.30;;
43620;SDS011;29213;50.770;7.298;2024-03-08T06:56:52;29.33;;;20.75;;
43620;SDS011;29213;50.770;7.298;2024-03-08T06:59:17;29.92;;;21.08;;
43620;SDS011;29213;50.770;7.298;2024-03-08T07:01:43;27.45;;;19.35;;
43620;SDS011;29213;50.770;7.298;2024-03-08T07:04:08;30.92;;;20.05;;
43620;SDS011;29213;50.770;7.298;2024-03-08T07:06:34;32.13;;;22.08;;
43620;SDS011;29213;50.770;7.298;2024-03-08T07:08:59;28.25;;;20.02;;
43620;SDS011;29213;50.770;7.298;2024-03-08T07:11:26;29.33;;;19.58;;
43620;SDS011;29213;50.770;7.298;2024-03-08T07:13:51;29.40;;;20.02;;
43620;SDS011;29213;50.770;7.298;2024-03-08T07:16:16;30.40;;;21.05;;
43620;SDS011;29213;50.770;7.298;2024-03-08T07:18:42;26.83;;;19.90;;
43620;SDS011;29213;50.770;7.298;2024-03-08T07:21:11;27.48;;;19.58;;
43620;SDS011;29213;50.770;7.298;2024-03-08T07:23:36;32.00;;;21.60;;
43620;SDS011;29213;50.770;7.298;2024-03-08T07:26:15;31.38;;;21.95;;
43620;SDS011;29213;50.770;7.298;2024-03-08T07:28:41;32.00;;;21.75;;
43620;SDS011;29213;50.770;7.298;2024-03-08T07:31:07;28.20;;;19.95;;
43620;SDS011;29213;50.770;7.298;2024-03-08T07:33:43;29.70;;;19.65;;
43620;SDS011;29213;50.770;7.298;2024-03-08T07:36:09;30.17;;;21.30;;
43620;SDS011;29213;50.770;7.298;2024-03-08T07:38:34;30.23;;;19.85;;
43620;SDS011;29213;50.770;7.298;2024-03-08T07:41:00;32.17;;;20.90;;
43620;SDS011;29213;50.770;7.298;2024-03-08T07:43:25;30.52;;;19.75;;
43620;SDS011;29213;50.770;7.298;2024-03-08T07:45:51;36.03;;;21.58;;
43620;SDS011;29213;50.770;7.298;2024-03-08T07:48:18;28.85;;;20.50;;
43620;SDS011;29213;50.770;7.298;2024-03-08T07:50:43;28.25;;;19.20;;
43620;SDS011;29213;50.770;7.298;2024-03-08T07:53:10;27.52;;;19.63;;
43620;SDS011;29213;50.770;7.298;2024-03-08T07:55:35;27.85;;;18.55;;
43620;SDS011;29213;50.770;7.298;2024-03-08T07:58:01;31.52;;;19.80;;
43620;SDS011;29213;50.770;7.298;2024-03-08T08:00:28;29.10;;;19.67;;
43620;SDS011;29213;50.770;7.298;2024-03-08T08:02:55;29.63;;;20.27;;
43620;SDS011;29213;50.770;7.298;2024-03-08T08:05:21;28.48;;;19.27;;
43620;SDS011;29213;50.770;7.298;2024-03-08T08:07:46;28.77;;;19.10;;
43620;SDS011;29213;50.770;7.298;2024-03-08T08:10:15;27.08;;;19.00;;
43620;SDS011;29213;50.770;7.298;2024-03-08T08:12:47;29.08;;;19.33;;
43620;SDS011;29213;50.770;7.298;2024-03-08T08:15:16;29.35;;;19.35;;
43620;SDS011;29213;50.770;7.298;2024-03-08T08:17:46;25.65;;;18.65;;
43620;SDS011;29213;50.770;7.298;2024-03-08T08:20:13;27.85;;;19.65;;
43620;SDS011;29213;50.770;7.298;2024-03-08T08:22:38;27.45;;;19.17;;
43620;SDS011;29213;50.770;7.298;2024-03-08T08:25:08;27.08;;;19.15;;
43620;SDS011;29213;50.770;7.298;2024-03-08T08:27:34;27.55;;;19.20;;
43620;SDS011;29213;50.770;7.298;2024-03-08T08:30:01;26.45;;;18.92;;
43620;SDS011;29213;50.770;7.298;2024-03-08T08:32:28;27.45;;;18.90;;
43620;SDS011;29213;50.770;7.298;2024-03-08T08:34:53;28.13;;;19.67;;
43620;SDS011;29213;50.770;7.298;2024-03-08T08:37:19;26.50;;;18.02;;
43620;SDS011;29213;50.770;7.298;2024-03-08T08:39:44;28.38;;;19.25;;
43620;SDS011;29213;50.770;7.298;2024-03-08T08:42:10;24.50;;;17.90;;
43620;SDS011;29213;50.770;7.298;2024-03-08T08:44:36;24.02;;;17.17;;
43620;SDS011;29213;50.770;7.298;2024-03-08T08:47:01;25.85;;;18.55;;
43620;SDS011;29213;50.770;7.298;2024-03-08T08:49:29;27.13;;;19.90;;
43620;SDS011;29213;50.770;7.298;2024-03-08T08:51:55;24.85;;;17.20;;
43620;SDS011;29213;50.770;7.298;2024-03-08T08:54:23;24.90;;;17.80;;
43620;SDS011;29213;50.770;7.298;2024-03-08T08:56:50;22.95;;;16.80;;
43620;SDS011;29213;50.770;7.298;2024-03-08T08:59:15;25.45;;;18.13;;
43620;SDS011;29213;50.770;7.298;2024-03-08T09:01:44;21.95;;;15.63;;
43620;SDS011;29213;50.770;7.298;2024-03-08T09:04:12;22.52;;;15.68;;
43620;SDS011;29213;50.770;7.298;2024-03-08T09:06:37;20.02;;;14.45;;
43620;SDS011;29213;50.770;7.298;2024-03-08T09:09:06;19.92;;;13.82;;
43620;SDS011;29213;50.770;7.298;2024-03-08T09:11:31;20.35;;;14.30;;
43620;SDS011;29213;50.770;7.298;2024-03-08T09:13:57;17.45;;;12.15;;
43620;SDS011;29213;50.770;7.298;2024-03-08T09:16:22;19.20;;;13.45;;
43620;SDS011;29213;50.770;7.298;2024-03-08T09:18:48;18.73;;;13.13;;
43620;SDS011;29213;50.770;7.298;2024-03-08T09:21:13;19.20;;;13.23;;
43620;SDS011;29213;50.770;7.298;2024-03-08T09:23:40;21.38;;;13.82;;
43620;SDS011;29213;50.770;7.298;2024-03-08T09:26:06;16.92;;;12.35;;
43620;SDS011;29213;50.770;7.298;2024-03-08T09:28:34;17.38;;;12.48;;
43620;SDS011;29213;50.770;7.298;2024-03-08T09:31:00;17.48;;;11.82;;
43620;SDS011;29213;50.770;7.298;2024-03-08T09:33:26;16.77;;;12.32;;
43620;SDS011;29213;50.770;7.298;2024-03-08T09:35:54;17.88;;;12.23;;
43620;SDS011;29213;50.770;7.298;2024-03-08T09:38:19;18.73;;;12.73;;
43620;SDS011;29213;50.770;7.298;2024-03-08T09:40:46;17.30;;;12.55;;
43620;SDS011;29213;50.770;7.298;2024-03-08T09:43:13;18.38;;;11.88;;
43620;SDS011;29213;50.770;7.298;2024-03-08T09:45:38;15.68;;;11.45;;
43620;SDS011;29213;50.770;7.298;2024-03-08T09:48:10;18.35;;;11.68;;
43620;SDS011;29213;50.770;7.298;2024-03-08T09:50:39;16.23;;;11.15;;
43620;SDS011;29213;50.770;7.298;2024-03-08T09:53:08;17.13;;;12.32;;
43620;SDS011;29213;50.770;7.298;2024-03-08T09:55:35;17.48;;;11.43;;
43620;SDS011;29213;50.770;7.298;2024-03-08T09:58:02;16.40;;;11.60;;
43620;SDS011;29213;50.770;7.298;2024-03-08T10:00:49;17.05;;;11.30;;
43620;SDS011;29213;50.770;7.298;2024-03-08T10:03:15;14.95;;;10.65;;
43620;SDS011;29213;50.770;7.298;2024-03-08T10:05:41;15.68;;;11.00;;
43620;SDS011;29213;50.770;7.298;2024-03-08T10:08:09;16.45;;;12.10;;
43620;SDS011;29213;50.770;7.298;2024-03-08T10:10:36;18.02;;;12.20;;
43620;SDS011;29213;50.770;7.298;2024-03-08T10:13:05;16.40;;;11.48;;
43620;SDS011;29213;50.770;7.298;2024-03-08T10:15:31;16.13;;;11.80;;
43620;SDS011;29213;50.770;7.298;2024-03-08T10:17:58;14.73;;;11.20;;
43620;SDS011;29213;50.770;7.298;2024-03-08T10:20:24;14.52;;;11.13;;
43620;SDS011;29213;50.770;7.298;2024-03-08T10:22:52;19.58;;;12.13;;
43620;SDS011;29213;50.770;7.298;2024-03-08T10:25:19;15.82;;;11.85;;
43620;SDS011;29213;50.770;7.298;2024-03-08T10:27:45;16.15;;;11.45;;
43620;SDS011;29213;50.770;7.298;2024-03-08T10:30:11;17.55;;;12.05;;
43620;SDS011;29213;50.770;7.298;2024-03-08T10:32:39;16.50;;;12.00;;
43620;SDS011;29213;50.770;7.298;2024-03-08T10:35:06;16.15;;;11.68;;
43620;SDS011;29213;50.770;7.298;2024-03-08T10:37:33;15.50;;;12.13;;
43620;SDS011;29213;50.770;7.298;2024-03-08T10:40:12;15.23;;;11.45;;
43620;SDS011;29213;50.770;7.298;2024-03-08T10:43:02;14.85;;;11.10;;
43620;SDS011;29213;50.770;7.298;2024-03-08T10:45:36;16.58;;;11.73;;
43620;SDS011;29213;50.770;7.298;2024-03-08T10:50:47;15.07;;;11.27;;
43620;SDS011;29213;50.770;7.298;2024-03-08T10:53:15;15.95;;;11.82;;
43620;SDS011;29213;50.770;7.298;2024-03-08T10:55:43;15.50;;;11.43;;
43620;SDS011;29213;50.770;7.298;2024-03-08T10:58:10;17.60;;;11.35;;
43620;SDS011;29213;50.770;7.298;2024-03-08T11:00:36;15.05;;;11.85;;
43620;SDS011;29213;50.770;7.298;2024-03-08T11:03:02;14.68;;;10.88;;
43620;SDS011;29213;50.770;7.298;2024-03-08T11:05:38;15.38;;;11.60;;
43620;SDS011;29213;50.770;7.298;2024-03-08T11:08:18;15.10;;;10.52;;
43620;SDS011;29213;50.770;7.298;2024-03-08T11:10:49;16.25;;;11.10;;
43620;SDS011;29213;50.770;7.298;2024-03-08T11:16:13;16.75;;;11.55;;
43620;SDS011;29213;50.770;7.298;2024-03-08T11:18:49;14.18;;;10.32;;
43620;SDS011;29213;50.770;7.298;2024-03-08T11:21:14;14.60;;;10.95;;
43620;SDS011;29213;50.770;7.298;2024-03-08T11:23:40;18.30;;;12.18;;
43620;SDS011;29213;50.770;7.298;2024-03-08T11:26:19;17.50;;;11.98;;
43620;SDS011;29213;50.770;7.298;2024-03-08T11:28:45;15.57;;;11.45;;
43620;SDS011;29213;50.770;7.298;2024-03-08T11:33:39;14.32;;;10.63;;
43620;SDS011;29213;50.770;7.298;2024-03-08T11:36:24;16.38;;;10.98;;
43620;SDS011;29213;50.770;7.298;2024-03-08T11:38:50;14.48;;;11.25;;
43620;SDS011;29213;50.770;7.298;2024-03-08T11:41:19;15.65;;;10.13;;
43620;SDS011;29213;50.770;7.298;2024-03-08T11:43:46;15.40;;;11.27;;
43620;SDS011;29213;50.770;7.298;2024-03-08T11:46:13;13.30;;;10.43;;
43620;SDS011;29213;50.770;7.298;2024-03-08T11:48:40;14.10;;;10.88;;
43620;SDS011;29213;50.770;7.298;2024-03-08T11:51:07;15.20;;;11.23;;
43620;SDS011;29213;50.770;7.298;2024-03-08T11:53:34;15.40;;;11.27;;
43620;SDS011;29213;50.770;7.298;2024-03-08T11:56:11;16.10;;;11.10;;
43620;SDS011;29213;50.770;7.298;2024-03-08T11:58:38;14.23;;;10.60;;
43620;SDS011;29213;50.770;7.298;2024-03-08T12:01:05;14.00;;;10.55;;
43620;SDS011;29213;50.770;7.298;2024-03-08T12:03:31;15.13;;;10.20;;
43620;SDS011;29213;50.770;7.298;2024-03-08T12:05:59;15.43;;;10.48;;
43620;SDS011;29213;50.770;7.298;2024-03-08T12:08:26;14.60;;;10.10;;
43620;SDS011;29213;50.770;7.298;2024-03-08T12:10:53;12.65;;;9.50;;
43620;SDS011;29213;50.770;7.298;2024-03-08T12:13:28;12.18;;;9.30;;
43620;SDS011;29213;50.770;7.298;2024-03-08T12:15:56;13.27;;;10.00;;
43620;SDS011;29213;50.770;7.298;2024-03-08T12:18:24;12.88;;;9.13;;
43620;SDS011;29213;50.770;7.298;2024-03-08T12:20:51;11.75;;;8.85;;
43620;SDS011;29213;50.770;7.298;2024-03-08T12:23:17;12.20;;;9.27;;
43620;SDS011;29213;50.770;7.298;2024-03-08T12:25:43;13.20;;;9.65;;
43620;SDS011;29213;50.770;7.298;2024-03-08T12:28:09;13.23;;;9.35;;
43620;SDS011;29213;50.770;7.298;2024-03-08T12:30:43;13.00;;;8.73;;
43620;SDS011;29213;50.770;7.298;2024-03-08T12:33:14;12.43;;;9.73;;
43620;SDS011;29213;50.770;7.298;2024-03-08T12:35:40;12.00;;;9.02;;
43620;SDS011;29213;50.770;7.298;2024-03-08T12:38:06;13.23;;;9.23;;
43620;SDS011;29213;50.770;7.298;2024-03-08T12:40:33;12.95;;;9.23;;
43620;SDS011;29213;50.770;7.298;2024-03-08T12:43:05;10.43;;;8.15;;
43620;SDS011;29213;50.770;7.298;2024-03-08T12:45:31;11.65;;;8.70;;
43620;SDS011;29213;50.770;7.298;2024-03-08T12:47:57;11.70;;;8.68;;
43620;SDS011;29213;50.770;7.298;2024-03-08T12:50:24;12.07;;;8.50;;
43620;SDS011;29213;50.770;7.298;2024-03-08T12:52:50;13.25;;;8.98;;
43620;SDS011;29213;50.770;7.298;2024-03-08T12:55:17;10.82;;;7.82;;
43620;SDS011;29213;50.770;7.298;2024-03-08T12:57:43;10.82;;;8.18;;
43620;SDS011;29213;50.770;7.298;2024-03-08T13:00:10;13.45;;;8.10;;
43620;SDS011;29213;50.770;7.298;2024-03-08T13:02:47;10.18;;;7.90;;
43620;SDS011;29213;50.770;7.298;2024-03-08T13:05:13;11.43;;;8.48;;
43620;SDS011;29213;50.770;7.298;2024-03-08T13:07:39;11.85;;;8.98;;
43620;SDS011;29213;50.770;7.298;2024-03-08T13:10:11;12.80;;;7.80;;
43620;SDS011;29213;50.770;7.298;2024-03-08T13:12:40;11.27;;;8.23;;
43620;SDS011;29213;50.770;7.298;2024-03-08T13:15:09;11.05;;;8.38;;
43620;SDS011;29213;50.770;7.298;2024-03-08T13:17:45;12.02;;;8.68;;
43620;SDS011;29213;50.770;7.298;2024-03-08T13:20:13;11.80;;;7.95;;
43620;SDS011;29213;50.770;7.298;2024-03-08T13:22:44;10.40;;;7.82;;
43620;SDS011;29213;50.770;7.298;2024-03-08T13:25:10;12.02;;;8.23;;
43620;SDS011;29213;50.770;7.298;2024-03-08T13:27:39;10.65;;;7.97;;
43620;SDS011;29213;50.770;7.298;2024-03-08T13:30:06;10.40;;;7.70;;
43620;SDS011;29213;50.770;7.298;2024-03-08T13:32:32;11.88;;;8.07;;
43620;SDS011;29213;50.770;7.298;2024-03-08T13:34:57;9.05;;;7.20;;
43620;SDS011;29213;50.770;7.298;2024-03-08T13:37:23;10.20;;;7.70;;
43620;SDS011;29213;50.770;7.298;2024-03-08T13:39:48;11.00;;;7.70;;
43620;SDS011;29213;50.770;7.298;2024-03-08T13:42:14;9.95;;;7.60;;
43620;SDS011;29213;50.770;7.298;2024-03-08T13:44:44;13.18;;;8.20;;
43620;SDS011;29213;50.770;7.298;2024-03-08T13:49:37;9.90;;;7.43;;
43620;SDS011;29213;50.770;7.298;2024-03-08T13:52:03;10.75;;;8.23;;
43620;SDS011;29213;50.770;7.298;2024-03-08T13:54:29;10.75;;;7.90;;
43620;SDS011;29213;50.770;7.298;2024-03-08T13:56:56;11.57;;;8.30;;
43620;SDS011;29213;50.770;7.298;2024-03-08T13:59:25;10.25;;;7.90;;
43620;SDS011;29213;50.770;7.298;2024-03-08T14:01:54;11.38;;;8.52;;
43620;SDS011;29213;50.770;7.298;2024-03-08T14:04:21;11.13;;;8.38;;
43620;SDS011;29213;50.770;7.298;2024-03-08T14:06:47;11.07;;;8.25;;
43620;SDS011;29213;50.770;7.298;2024-03-08T14:09:12;10.77;;;8.35;;
43620;SDS011;29213;50.770;7.298;2024-03-08T14:11:44;10.55;;;7.85;;
43620;SDS011;29213;50.770;7.298;2024-03-08T14:14:10;9.93;;;7.85;;
43620;SDS011;29213;50.770;7.298;2024-03-08T14:16:38;10.50;;;7.70;;
43620;SDS011;29213;50.770;7.298;2024-03-08T14:19:04;10.90;;;8.02;;
43620;SDS011;29213;50.770;7.298;2024-03-08T14:21:33;11.57;;;7.70;;
43620;SDS011;29213;50.770;7.298;2024-03-08T14:23:59;10.82;;;7.80;;
43620;SDS011;29213;50.770;7.298;2024-03-08T14:26:24;10.50;;;7.47;;
43620;SDS011;29213;50.770;7.298;2024-03-08T14:28:51;10.52;;;7.50;;
43620;SDS011;29213;50.770;7.298;2024-03-08T14:31:22;10.02;;;7.40;;
43620;SDS011;29213;50.770;7.298;2024-03-08T14:33:53;11.55;;;8.40;;